createdAt,value
2019-06-01T00:01:46.865Z,101800.08
2019-06-01T00:04:16.431Z,101799.97
2019-06-01T00:06:46.948Z,101792.24
2019-06-01T00:09:16.378Z,101786.69
2019-06-01T00:11:45.784Z,101792.06
2019-06-01T00:14:15.339Z,101782.05
2019-06-01T00:16:46.038Z,101783.59
2019-06-01T00:19:15.533Z,101786.72
2019-06-01T00:21:45.564Z,101779.09
2019-06-01T00:24:15.915Z,101778.14
2019-06-01T00:26:45.931Z,101775.19
2019-06-01T00:29:16.533Z,101775.22
2019-06-01T00:31:47.782Z,101776.47
2019-06-01T00:34:18.355Z,101785.69
2019-06-01T00:36:47.898Z,101784.84
2019-06-01T00:39:17.436Z,101782.51
2019-06-01T00:41:47.988Z,101779.16
2019-06-01T00:44:18.409Z,101778.93
2019-06-01T00:46:48.735Z,101777.85
2019-06-01T00:49:18.353Z,101777.59
2019-06-01T00:51:49.008Z,101777.51
2019-06-01T00:54:18.515Z,101778.75
2019-06-01T00:56:47.881Z,101776.93
2019-06-01T00:59:17.433Z,101770.91
2019-06-01T01:01:47.847Z,101780.22
2019-06-01T01:04:18.437Z,101790.36
2019-06-01T01:06:49.213Z,101788.17
2019-06-01T01:09:18.906Z,101786.97
2019-06-01T01:11:49.178Z,101786.97
2019-06-01T01:14:18.546Z,101781.92
2019-06-01T01:16:47.914Z,101783.28
2019-06-01T01:19:17.417Z,101791.72
2019-06-01T01:21:47.970Z,101792.94
2019-06-01T01:24:17.519Z,101793.69
2019-06-01T01:26:46.889Z,101790.88
2019-06-01T01:29:16.486Z,101792.00
2019-06-01T01:31:47.041Z,101791.62
2019-06-01T01:34:16.485Z,101795.80
2019-06-01T01:36:45.850Z,101788.77
2019-06-01T01:39:15.551Z,101795.80
2019-06-01T01:41:44.924Z,101791.22
2019-06-01T01:44:15.461Z,101790.74
2019-06-01T01:46:44.829Z,101787.41
2019-06-01T01:49:14.459Z,101787.14
2019-06-01T01:51:43.849Z,101781.38
2019-06-01T01:54:13.577Z,101780.48
2019-06-01T01:56:43.903Z,101783.81
2019-06-01T01:59:13.551Z,101782.35
2019-06-01T02:01:43.857Z,101775.94
2019-06-01T02:04:14.494Z,101771.86
2019-06-01T02:06:43.861Z,101774.56
2019-06-01T02:09:13.534Z,101773.71
2019-06-01T02:11:43.932Z,101776.42
2019-06-01T02:14:13.560Z,101773.59
2019-06-01T02:16:43.880Z,101771.12
2019-06-01T02:19:13.516Z,101770.88
2019-06-01T02:21:43.840Z,101772.97
2019-06-01T02:24:13.525Z,101776.90
2019-06-01T02:26:44.024Z,101769.12
2019-06-01T02:29:13.648Z,101773.45
2019-06-01T02:31:43.903Z,101767.88
2019-06-01T02:34:13.547Z,101773.19
2019-06-01T02:36:43.873Z,101777.87
2019-06-01T02:39:14.622Z,101776.27
2019-06-01T02:41:44.308Z,101775.01
2019-06-01T02:44:13.688Z,101775.87
2019-06-01T02:46:43.942Z,101771.06
2019-06-01T02:49:13.590Z,101764.84
2019-06-01T02:51:43.885Z,101767.50
2019-06-01T02:54:13.577Z,101762.66
2019-06-01T02:56:44.008Z,101762.52
2019-06-01T02:59:13.650Z,101759.88
2019-06-01T03:01:56.657Z,101768.98
2019-06-01T03:04:17.422Z,101761.58
2019-06-01T03:06:48.748Z,101758.14
2019-06-01T03:09:21.259Z,101769.33
2019-06-01T03:11:53.342Z,101770.05
2019-06-01T03:14:23.000Z,101774.59
2019-06-01T03:16:53.392Z,101762.52
2019-06-01T03:19:24.309Z,101762.52
2019-06-01T03:21:55.899Z,101776.09
2019-06-01T03:24:25.428Z,101771.44
2019-06-01T03:26:55.802Z,101766.14
2019-06-01T03:29:26.946Z,101764.92
2019-06-01T03:32:17.550Z,101771.78
2019-06-01T03:34:27.684Z,101773.89
2019-06-01T03:36:57.416Z,101775.97
2019-06-01T03:39:27.684Z,101775.97
2019-06-01T03:41:57.176Z,101788.45
2019-06-01T03:44:26.855Z,101779.22
2019-06-01T03:46:56.218Z,101773.83
2019-06-01T03:49:26.826Z,101784.07
2019-06-01T03:51:56.487Z,101781.48
2019-06-01T03:54:25.930Z,101778.02
2019-06-01T03:56:55.377Z,101772.82
2019-06-01T03:59:24.899Z,101775.78
2019-06-01T04:01:54.297Z,101771.56
2019-06-01T04:04:23.860Z,101769.11
2019-06-01T04:06:53.529Z,101780.33
2019-06-01T04:09:22.980Z,101777.98
2019-06-01T04:11:52.353Z,101783.53
2019-06-01T04:14:22.042Z,101780.86
2019-06-01T04:16:51.402Z,101776.06
2019-06-01T04:19:21.805Z,101775.97
2019-06-01T04:21:51.466Z,101776.69
2019-06-01T04:24:20.992Z,101779.94
2019-06-01T04:26:50.365Z,101781.94
2019-06-01T04:29:19.956Z,101773.72
2019-06-01T04:31:49.395Z,101778.20
2019-06-01T04:34:18.888Z,101781.80
2019-06-01T04:36:48.272Z,101775.80
2019-06-01T04:42:25.741Z,101778.02
2019-06-01T04:44:55.494Z,101785.06
2019-06-01T04:47:24.985Z,101784.33
2019-06-01T04:49:54.346Z,101782.22
2019-06-01T04:52:24.016Z,101780.22
2019-06-01T04:54:53.675Z,101785.07
2019-06-01T04:57:23.053Z,101784.19
2019-06-01T04:59:52.437Z,101777.90
2019-06-01T05:02:21.968Z,101775.17
2019-06-01T05:04:51.387Z,101774.27
2019-06-01T05:07:20.975Z,101775.47
2019-06-01T05:09:51.230Z,101777.52
2019-06-01T05:12:20.640Z,101767.58
2019-06-01T05:14:50.403Z,101761.81
2019-06-01T05:17:20.255Z,101768.92
2019-06-01T05:19:49.921Z,101764.42
2019-06-01T05:22:19.315Z,101758.08
2019-06-01T05:27:52.767Z,101765.97
2019-06-01T05:30:22.147Z,101760.52
2019-06-01T05:32:51.530Z,101764.16
2019-06-01T05:35:21.005Z,101760.19
2019-06-01T05:37:50.389Z,101769.20
2019-06-01T05:40:20.113Z,101755.77
2019-06-01T05:42:49.489Z,101755.77
2019-06-01T05:45:19.367Z,101757.57
2019-06-01T05:47:50.002Z,101761.77
2019-06-01T05:50:19.439Z,101756.56
2019-06-01T05:52:49.132Z,101763.12
2019-06-01T05:55:18.808Z,101751.59
2019-06-01T05:57:49.407Z,101758.35
2019-06-01T06:00:22.327Z,101769.20
2019-06-01T06:02:52.013Z,101766.91
2019-06-01T06:05:21.383Z,101767.38
2019-06-01T06:07:50.784Z,101774.48
2019-06-01T06:10:20.224Z,101777.23
2019-06-01T06:12:50.586Z,101770.77
2019-06-01T06:15:20.206Z,101773.55
2019-06-01T06:17:49.926Z,101771.33
2019-06-01T06:20:20.174Z,101767.44
2019-06-01T06:22:50.170Z,101771.09
2019-06-01T06:25:19.540Z,101769.69
2019-06-01T06:27:49.296Z,101768.72
2019-06-01T06:30:19.034Z,101762.95
2019-06-01T06:32:48.609Z,101762.80
2019-06-01T06:35:19.441Z,101761.63
2019-06-01T06:37:48.915Z,101756.70
2019-06-01T06:40:20.160Z,101761.16
2019-06-01T06:42:50.619Z,101752.72
2019-06-01T06:45:20.794Z,101757.19
2019-06-01T06:47:50.479Z,101753.86
2019-06-01T06:50:19.988Z,101759.58
2019-06-01T06:52:49.673Z,101755.91
2019-06-01T06:55:19.876Z,101758.89
2019-06-01T06:57:51.456Z,101759.87
2019-06-01T07:00:20.903Z,101759.56
2019-06-01T07:02:50.610Z,101759.00
2019-06-01T07:05:21.324Z,101754.08
2019-06-01T07:07:50.688Z,101758.55
2019-06-01T07:10:20.375Z,101755.98
2019-06-01T07:12:52.620Z,101759.07
2019-06-01T07:15:23.397Z,101747.38
2019-06-01T07:17:52.844Z,101751.89
2019-06-01T07:20:23.632Z,101752.95
2019-06-01T07:22:53.436Z,101758.66
2019-06-01T07:25:23.202Z,101753.89
2019-06-01T07:27:52.733Z,101758.74
2019-06-01T07:30:22.429Z,101752.91
2019-06-01T07:32:51.840Z,101754.32
2019-06-01T07:35:22.405Z,101753.16
2019-06-01T07:37:52.129Z,101762.97
2019-06-01T07:40:22.834Z,101762.20
2019-06-01T07:42:52.667Z,101759.63
2019-06-01T07:45:22.898Z,101760.55
2019-06-01T07:47:52.594Z,101757.80
2019-06-01T07:50:21.988Z,101763.74
2019-06-01T07:52:52.688Z,101766.89
2019-06-01T07:55:23.383Z,101761.80
2019-06-01T07:57:53.766Z,101765.25
2019-06-01T08:00:24.511Z,101760.34
2019-06-01T08:02:54.892Z,101754.31
2019-06-01T08:05:25.378Z,101752.77
2019-06-01T08:07:56.034Z,101753.25
2019-06-01T08:10:26.149Z,101755.66
2019-06-01T08:12:56.998Z,101759.48
2019-06-01T08:15:28.280Z,101761.73
2019-06-01T08:17:58.648Z,101746.44
2019-06-01T08:20:28.715Z,101738.69
2019-06-01T08:23:01.098Z,101748.14
2019-06-01T08:25:30.777Z,101744.53
2019-06-01T08:28:00.157Z,101740.89
2019-06-01T08:30:30.705Z,101743.98
2019-06-01T08:33:00.108Z,101743.83
2019-06-01T08:35:29.514Z,101749.14
2019-06-01T08:37:59.160Z,101747.80
2019-06-01T08:40:29.453Z,101740.38
2019-06-01T08:42:58.953Z,101735.70
2019-06-01T08:45:29.657Z,101740.83
2019-06-01T08:47:59.052Z,101732.86
2019-06-01T08:50:29.797Z,101743.83
2019-06-01T08:52:59.793Z,101739.13
2019-06-01T08:55:30.176Z,101737.73
2019-06-01T08:57:59.876Z,101730.91
2019-06-01T09:00:30.613Z,101731.14
2019-06-01T09:02:59.995Z,101726.94
2019-06-01T09:05:30.329Z,101728.03
2019-06-01T09:08:01.017Z,101719.88
2019-06-01T09:10:31.457Z,101729.28
2019-06-01T09:13:00.923Z,101725.22
2019-06-01T09:15:31.470Z,101718.82
2019-06-01T09:18:00.866Z,101724.34
2019-06-01T09:20:35.312Z,101717.90
2019-06-01T09:23:02.046Z,101715.48
2019-06-01T09:25:31.794Z,101722.16
2019-06-01T09:28:01.155Z,101729.67
2019-06-01T09:30:31.967Z,101732.29
2019-06-01T09:33:01.656Z,101724.45
2019-06-01T09:35:50.141Z,101725.36
2019-06-01T09:38:02.387Z,101719.03
2019-06-01T09:40:33.413Z,101721.49
2019-06-01T09:43:03.017Z,101717.58
2019-06-01T09:45:33.347Z,101712.52
2019-06-01T09:48:03.861Z,101717.50
2019-06-01T09:50:33.531Z,101717.03
2019-06-01T09:53:02.882Z,101710.60
2019-06-01T09:55:32.706Z,101714.07
2019-06-01T09:58:03.665Z,101713.41
2019-06-01T10:00:33.120Z,101707.25
2019-06-01T10:03:02.773Z,101704.06
2019-06-01T10:05:32.450Z,101704.06
2019-06-01T10:08:02.067Z,101706.50
2019-06-01T10:10:31.965Z,101713.73
2019-06-01T10:13:01.274Z,101713.66
2019-06-01T10:15:30.773Z,101702.69
2019-06-01T10:18:00.436Z,101700.05
2019-06-01T10:20:30.677Z,101695.19
2019-06-01T10:23:00.336Z,101696.09
2019-06-01T10:25:30.344Z,101704.96
2019-06-01T10:28:00.058Z,101700.67
2019-06-01T10:30:29.727Z,101701.17
2019-06-01T10:32:59.403Z,101695.91
2019-06-01T10:35:44.684Z,101692.59
2019-06-01T10:38:28.000Z,101690.25
2019-06-01T10:41:01.672Z,101681.18
2019-06-01T10:43:31.434Z,101690.98
2019-06-01T10:46:01.033Z,101690.14
2019-06-01T10:48:32.651Z,101681.63
2019-06-01T10:51:02.051Z,101680.35
2019-06-01T10:53:32.045Z,101682.78
2019-06-01T10:56:02.040Z,101679.80
2019-06-01T10:58:32.286Z,101681.31
2019-06-01T11:01:01.926Z,101675.73
2019-06-01T11:03:32.458Z,101671.31
2019-06-01T11:06:01.922Z,101669.11
2019-06-01T11:08:32.755Z,101661.99
2019-06-01T11:11:02.319Z,101665.66
2019-06-01T11:13:33.026Z,101673.09
2019-06-01T11:16:02.421Z,101662.63
2019-06-01T11:18:33.159Z,101666.23
2019-06-01T11:21:02.566Z,101664.45
2019-06-01T11:23:33.218Z,101667.40
2019-06-01T11:26:03.210Z,101653.37
2019-06-01T11:28:33.833Z,101655.45
2019-06-01T11:31:04.919Z,101642.58
2019-06-01T11:33:34.337Z,101637.66
2019-06-01T11:36:04.140Z,101643.78
2019-06-01T11:38:34.660Z,101643.78
2019-06-01T11:41:06.036Z,101643.45
2019-06-01T11:43:36.449Z,101640.36
2019-06-01T11:46:06.128Z,101643.45
2019-06-01T11:48:37.173Z,101631.70
2019-06-01T11:51:06.727Z,101633.28
2019-06-01T11:53:37.305Z,101634.31
2019-06-01T11:56:07.086Z,101631.16
2019-06-01T11:58:37.187Z,101625.83
2019-06-01T12:01:06.614Z,101636.28
2019-06-01T12:03:36.123Z,101618.25
2019-06-01T12:06:07.794Z,101626.80
2019-06-01T12:08:37.966Z,101630.42
2019-06-01T12:11:07.753Z,101615.89
2019-06-01T12:13:38.100Z,101616.82
2019-06-01T12:16:09.207Z,101614.68
2019-06-01T12:18:40.751Z,101622.08
2019-06-01T12:21:10.204Z,101616.34
2019-06-01T12:23:39.583Z,101605.34
2019-06-01T12:26:09.118Z,101605.34
2019-06-01T12:28:39.630Z,101609.50
2019-06-01T12:31:09.209Z,101612.47
2019-06-01T12:33:39.810Z,101598.63
2019-06-01T12:36:09.218Z,101595.40
2019-06-01T12:38:54.118Z,101594.83
2019-06-01T12:41:23.568Z,101598.50
2019-06-01T12:44:07.230Z,101591.17
2019-06-01T12:46:38.225Z,101591.94
2019-06-01T12:49:08.152Z,101597.41
2019-06-01T12:51:37.533Z,101586.20
2019-06-01T12:54:07.278Z,101585.97
2019-06-01T12:56:36.671Z,101575.95
2019-06-01T12:59:06.288Z,101590.70
2019-06-01T13:01:35.798Z,101578.51
2019-06-01T13:04:05.348Z,101580.41
2019-06-01T13:06:34.718Z,101571.72
2019-06-01T13:09:07.577Z,101576.03
2019-06-01T13:11:37.422Z,101565.19
2019-06-01T13:14:06.888Z,101572.71
2019-06-01T13:16:36.308Z,101569.02
2019-06-01T13:19:05.764Z,101561.22
2019-06-01T13:21:50.147Z,101558.20
2019-06-01T13:24:49.919Z,101552.21
2019-06-01T13:27:22.596Z,101548.00
2019-06-01T13:29:52.375Z,101542.00
2019-06-01T13:32:22.710Z,101542.55
2019-06-01T13:34:53.557Z,101542.28
2019-06-01T13:37:23.623Z,101537.14
2019-06-01T13:39:57.676Z,101533.66
2019-06-01T13:42:24.466Z,101533.34
2019-06-01T13:44:53.825Z,101537.40
2019-06-01T13:47:23.786Z,101527.63
2019-06-01T13:56:07.348Z,101526.02
2019-06-01T13:58:36.762Z,101529.20
2019-06-01T14:01:06.438Z,101518.06
2019-06-01T14:03:35.836Z,101519.33
2019-06-01T14:06:05.395Z,101517.72
2019-06-01T14:08:34.747Z,101508.53
2019-06-01T14:11:04.407Z,101515.94
2019-06-01T14:13:33.765Z,101509.42
2019-06-01T14:16:03.646Z,101503.78
2019-06-01T14:18:32.997Z,101501.94
2019-06-01T14:21:02.405Z,101516.63
2019-06-01T14:23:31.832Z,101520.45
2019-06-01T14:26:01.627Z,101510.71
2019-06-01T14:28:31.032Z,101518.34
2019-06-01T14:31:00.686Z,101500.81
2019-06-01T14:33:30.397Z,101504.25
2019-06-01T14:35:59.750Z,101509.69
2019-06-01T14:38:46.080Z,101513.16
2019-06-01T14:41:00.768Z,101510.15
2019-06-01T14:43:30.616Z,101504.58
2019-06-01T14:45:59.983Z,101500.73
2019-06-01T14:48:29.489Z,101507.27
2019-06-01T14:50:58.851Z,101505.84
2019-06-01T14:53:28.465Z,101504.98
2019-06-01T14:55:58.121Z,101506.30
2019-06-01T14:58:27.560Z,101495.33
2019-06-01T15:00:58.936Z,101503.91
2019-06-01T15:03:28.521Z,101498.58
2019-06-01T15:05:58.611Z,101505.64
2019-06-01T15:08:28.063Z,101494.33
2019-06-01T15:10:59.348Z,101492.15
2019-06-01T15:13:29.181Z,101489.73
2019-06-01T15:15:58.783Z,101484.05
2019-06-01T15:18:28.493Z,101485.27
2019-06-01T15:20:57.963Z,101481.05
2019-06-01T15:23:27.589Z,101484.98
2019-06-01T15:25:58.461Z,101480.63
2019-06-01T15:28:27.935Z,101486.79
2019-06-01T15:30:57.599Z,101485.36
2019-06-01T15:33:27.010Z,101483.57
2019-06-01T15:35:57.698Z,101472.81
2019-06-01T15:38:27.230Z,101474.44
2019-06-01T15:40:57.969Z,101468.48
2019-06-01T15:43:27.699Z,101470.03
2019-06-01T15:45:57.587Z,101468.32
2019-06-01T15:48:26.957Z,101460.53
2019-06-01T15:51:02.271Z,101461.80
2019-06-01T15:53:27.708Z,101471.47
2019-06-01T15:55:59.158Z,101468.97
2019-06-01T15:58:28.668Z,101464.33
2019-06-01T16:00:59.085Z,101464.59
2019-06-01T16:03:28.634Z,101460.47
2019-06-01T16:05:59.183Z,101450.50
2019-06-01T16:08:28.601Z,101451.81
2019-06-01T16:11:01.979Z,101448.00
2019-06-01T16:13:30.416Z,101447.80
2019-06-01T16:16:01.937Z,101449.27
2019-06-01T16:18:31.150Z,101445.55
2019-06-01T16:21:02.179Z,101454.69
2019-06-01T16:23:46.244Z,101449.56
2019-06-01T16:26:12.733Z,101443.81
2019-06-01T16:28:34.142Z,101450.78
2019-06-01T16:31:04.832Z,101442.74
2019-06-01T16:33:35.687Z,101441.52
2019-06-01T16:36:05.592Z,101444.56
2019-06-01T16:38:35.006Z,101448.90
2019-06-01T16:41:05.563Z,101445.34
2019-06-01T16:43:35.036Z,101448.69
2019-06-01T16:46:05.985Z,101444.59
2019-06-01T16:48:36.595Z,101444.59
2019-06-01T16:51:05.994Z,101442.13
2019-06-01T16:53:35.644Z,101446.52
2019-06-01T16:56:06.266Z,101450.54
2019-06-01T16:58:35.769Z,101438.70
2019-06-01T17:01:05.183Z,101439.53
2019-06-01T17:03:34.685Z,101443.19
2019-06-01T17:06:05.078Z,101437.72
2019-06-01T17:08:38.647Z,101438.69
2019-06-01T17:11:08.087Z,101432.59
2019-06-01T17:13:37.814Z,101440.42
2019-06-01T17:16:07.865Z,101439.31
2019-06-01T17:18:47.094Z,101438.77
2019-06-01T17:21:16.748Z,101439.12
2019-06-01T17:23:46.129Z,101434.60
2019-06-01T17:26:15.737Z,101436.23
2019-06-01T17:28:47.983Z,101429.39
2019-06-01T17:31:17.360Z,101428.88
2019-06-01T17:33:47.022Z,101429.31
2019-06-01T17:36:16.770Z,101439.20
2019-06-01T17:38:46.330Z,101434.50
2019-06-01T17:41:30.934Z,101434.41
2019-06-01T17:44:00.586Z,101434.19
2019-06-01T17:46:29.941Z,101427.16
2019-06-01T17:49:00.192Z,101423.33
2019-06-01T17:51:35.686Z,101429.52
2019-06-01T17:54:06.764Z,101424.06
2019-06-01T17:56:36.237Z,101425.23
2019-06-01T17:59:07.693Z,101418.30
2019-06-01T18:01:37.146Z,101421.94
2019-06-01T18:04:07.853Z,101419.91
2019-06-01T18:06:37.243Z,101421.71
2019-06-01T18:09:10.261Z,101422.45
2019-06-01T18:11:39.799Z,101415.84
2019-06-01T18:14:12.414Z,101417.13
2019-06-01T18:16:41.953Z,101413.49
2019-06-01T18:19:12.270Z,101417.78
2019-06-01T18:21:42.410Z,101410.95
2019-06-01T18:24:12.706Z,101410.30
2019-06-01T18:26:43.153Z,101404.66
2019-06-01T18:29:20.556Z,101410.97
2019-06-01T18:31:50.458Z,101408.33
2019-06-01T18:34:19.918Z,101411.83
2019-06-01T18:36:49.293Z,101409.27
2019-06-01T18:39:25.864Z,101407.52
2019-06-01T18:41:55.358Z,101409.22
2019-06-01T18:44:26.719Z,101409.22
2019-06-01T18:46:56.134Z,101417.51
2019-06-01T18:49:25.494Z,101418.58
2019-06-01T18:51:55.171Z,101406.19
2019-06-01T18:54:24.824Z,101407.47
2019-06-01T18:57:08.981Z,101406.80
2019-06-01T18:59:26.685Z,101406.95
2019-06-01T19:01:56.379Z,101406.16
2019-06-01T19:04:25.986Z,101409.87
2019-06-01T19:06:56.591Z,101408.34
2019-06-01T19:09:26.831Z,101408.80
2019-06-01T19:11:57.019Z,101420.36
2019-06-01T19:14:26.398Z,101412.38
2019-06-01T19:17:02.061Z,101420.66
2019-06-01T19:19:32.311Z,101419.44
2019-06-01T19:22:01.999Z,101411.20
2019-06-01T19:24:31.378Z,101411.20
2019-06-01T19:27:01.210Z,101414.33
2019-06-01T19:29:31.749Z,101427.75
2019-06-01T19:32:02.129Z,101432.75
2019-06-01T19:34:45.197Z,101430.91
2019-06-01T19:37:17.176Z,101435.65
2019-06-01T19:39:48.471Z,101442.89
2019-06-01T19:42:18.012Z,101437.76
2019-06-01T19:44:47.420Z,101441.50
2019-06-01T19:47:18.793Z,101443.40
2019-06-01T19:49:48.228Z,101446.23
2019-06-01T19:52:18.944Z,101453.96
2019-06-01T19:54:48.497Z,101444.64
2019-06-01T19:57:22.004Z,101453.56
2019-06-01T19:59:50.264Z,101448.03
2019-06-01T20:02:32.744Z,101449.35
2019-06-01T20:04:52.249Z,101454.08
2019-06-01T20:07:21.816Z,101453.19
2019-06-01T20:09:51.333Z,101468.95
2019-06-01T20:12:27.964Z,101458.55
2019-06-01T20:14:57.786Z,101456.40
2019-06-01T20:17:27.190Z,101465.89
2019-06-01T20:19:57.445Z,101463.34
2019-06-01T20:22:27.112Z,101466.78
2019-06-01T20:24:58.479Z,101469.89
2019-06-01T20:27:28.079Z,101469.10
2019-06-01T20:29:59.645Z,101473.31
2019-06-01T20:32:29.041Z,101473.31
2019-06-01T20:34:58.756Z,101473.02
2019-06-01T20:39:57.485Z,101477.02
2019-06-01T20:42:32.426Z,101474.12
2019-06-01T20:44:58.386Z,101477.92
2019-06-01T20:47:28.055Z,101477.58
2019-06-01T20:49:57.739Z,101472.96
2019-06-01T20:52:27.842Z,101477.23
2019-06-01T20:54:57.503Z,101471.42
2019-06-01T20:57:27.139Z,101470.57
2019-06-01T20:59:56.514Z,101469.07
2019-06-01T21:02:26.155Z,101471.30
2019-06-01T21:04:55.606Z,101473.39
2019-06-01T21:07:25.266Z,101475.46
2019-06-01T21:09:54.640Z,101474.95
2019-06-01T21:12:42.547Z,101459.34
2019-06-01T21:14:55.666Z,101470.00
2019-06-01T21:17:25.271Z,101468.61
2019-06-01T21:19:55.726Z,101464.01
2019-06-01T21:22:25.206Z,101460.37
2019-06-01T21:24:54.579Z,101468.61
2019-06-01T21:27:24.899Z,101466.02
2019-06-01T21:29:55.299Z,101472.02
2019-06-01T21:32:25.713Z,101470.29
2019-06-01T21:34:55.366Z,101470.62
2019-06-01T21:37:24.730Z,101470.98
2019-06-01T21:39:54.512Z,101472.32
2019-06-01T21:42:26.097Z,101471.28
2019-06-01T21:44:55.897Z,101472.11
2019-06-01T21:47:25.857Z,101471.22
2019-06-01T21:49:55.609Z,101474.11
2019-06-01T21:52:26.240Z,101470.33
2019-06-01T21:54:56.006Z,101470.64
2019-06-01T21:57:26.617Z,101480.38
2019-06-01T22:00:01.392Z,101470.59
2019-06-01T22:02:32.396Z,101473.81
2019-06-01T22:05:01.759Z,101480.66
2019-06-01T22:07:31.306Z,101480.97
2019-06-01T22:10:00.943Z,101477.89
2019-06-01T22:12:30.472Z,101478.94
2019-06-01T22:14:59.828Z,101473.78
2019-06-01T22:17:29.384Z,101478.20
2019-06-01T22:19:58.751Z,101480.59
2019-06-01T22:22:28.327Z,101476.83
2019-06-01T22:24:58.011Z,101474.27
2019-06-01T22:27:28.414Z,101476.16
2019-06-01T22:29:57.893Z,101476.48
2019-06-01T22:32:30.063Z,101469.98
2019-06-01T22:34:58.626Z,101460.37
2019-06-01T22:37:28.351Z,101464.47
2019-06-01T22:40:00.902Z,101462.22
2019-06-01T22:42:30.484Z,101468.18
2019-06-01T22:44:59.835Z,101458.56
2019-06-01T22:47:29.454Z,101457.82
2019-06-01T22:49:58.831Z,101451.99
2019-06-01T22:52:29.117Z,101449.22
2019-06-01T22:54:58.802Z,101450.05
2019-06-01T22:57:28.615Z,101447.63
2019-06-01T23:00:12.117Z,101449.83
2019-06-01T23:02:41.511Z,101447.58
2019-06-01T23:05:11.155Z,101438.47
2019-06-01T23:07:44.734Z,101443.36
2019-06-01T23:10:14.580Z,101442.28
2019-06-01T23:12:44.679Z,101443.47
2019-06-01T23:15:14.295Z,101444.30
2019-06-01T23:17:43.683Z,101435.69
2019-06-01T23:20:15.320Z,101444.52
2019-06-01T23:22:46.791Z,101443.11
2019-06-01T23:25:16.513Z,101428.33
2019-06-01T23:27:46.791Z,101426.23
2019-06-01T23:30:16.835Z,101422.59
2019-06-01T23:32:46.981Z,101421.99
2019-06-01T23:35:16.528Z,101421.62
2019-06-01T23:37:46.528Z,101419.48
2019-06-01T23:40:15.907Z,101424.57
2019-06-01T23:42:46.825Z,101420.42
2019-06-01T23:45:16.553Z,101417.11
2019-06-01T23:47:47.982Z,101421.16
2019-06-01T23:50:17.558Z,101416.84
2019-06-01T23:52:47.042Z,101412.33
2019-06-01T23:55:16.512Z,101409.52
2019-06-01T23:57:47.824Z,101408.77
